Main page
METAR-TAF:

METAR-TAF

Airports :

Angads Airport

Oujda, Morocco

latitude: 34-47N, longitude: 001-56W, elevation: 468 m

Current weather observation

The report was made 22 minutes ago, at 16:00 UTC
Wind 11 kt from the Northwest
Temperature 15°C
Humidity 41%
Pressure 1016 hPa
Visibility 10 km or more
Scattered clouds at a height of 3000 ft
Scattered clouds at a height of 10000 ft

METAR: GMFO 171600Z 31011KT 9999 SCT030 SCT100 15/02 Q1016 NOSIG

Time: 16:22 (16:22 UTC)

Forecast

The report was made 5 hours and 22 minutes ago, at 11:00 UTC
Forecast valid from 17 at 12 UTC to 18 at 18 UTC
Wind 12 kt from the South/Southwest
Visibility 10 km or more
Few clouds at a height of 2000 ft
Scattered clouds at a height of 3300 ft
Becoming
from 18 at 08 UTC to 18 at 12 UTC
Wind 14 kt from the Southwest
Visibility 10 km or more
Few clouds at a height of 2600 ft
Scattered clouds at a height of 10000 ft

TAF: GMFO 171100Z 1712/1818 20012KT 9999 FEW020 SCT033 BECMG 1808/1812 22014KT 9999 FEW026 SCT100

Weather observations and forecasts of more than 4000 airports (METAR and TAF reports).

The available stations are represented by yellow and red dots on the map.

Hover mouse over dot to see the name of the station.

Then click to see weather observations and forecasts.

To change the map : click on the green buttons with a black cross to zoom in, on the green button with a dash to zoom out, or on the green arrows for adjacent maps.


METAR-TAF: